sensor_id;sensor_type;location;lat;lon;timestamp;pressure;altitude;pressure_sealevel;temperature;humidity
19286;BME280;9776;50.798;6.430;2022-12-24T00:00:58;99369.44;;;11.09;69.10
19286;BME280;9776;50.798;6.430;2022-12-24T00:03:25;99369.28;;;11.10;69.42
19286;BME280;9776;50.798;6.430;2022-12-24T00:05:52;99370.91;;;11.11;69.07
19286;BME280;9776;50.798;6.430;2022-12-24T00:08:18;99367.63;;;11.09;69.17
19286;BME280;9776;50.798;6.430;2022-12-24T00:10:49;99380.19;;;11.07;69.29
19286;BME280;9776;50.798;6.430;2022-12-24T00:13:17;99379.91;;;11.02;69.47
19286;BME280;9776;50.798;6.430;2022-12-24T00:15:44;99380.06;;;11.01;69.41
19286;BME280;9776;50.798;6.430;2022-12-24T00:18:11;99371.31;;;11.00;69.95
19286;BME280;9776;50.798;6.430;2022-12-24T00:20:38;99371.31;;;11.00;69.83
19286;BME280;9776;50.798;6.430;2022-12-24T00:23:05;99382.72;;;11.01;69.82
19286;BME280;9776;50.798;6.430;2022-12-24T00:25:32;99379.44;;;10.99;70.02
19286;BME280;9776;50.798;6.430;2022-12-24T00:28:00;99371.66;;;10.97;70.36
19286;BME280;9776;50.798;6.430;2022-12-24T00:30:26;99370.03;;;10.96;70.55
19286;BME280;9776;50.798;6.430;2022-12-24T00:32:53;99369.84;;;10.98;70.53
19286;BME280;9776;50.798;6.430;2022-12-24T00:35:20;99365.75;;;10.95;70.58
19286;BME280;9776;50.798;6.430;2022-12-24T00:37:47;99369.22;;;10.96;70.78
19286;BME280;9776;50.798;6.430;2022-12-24T00:40:15;99375.47;;;10.95;70.75
19286;BME280;9776;50.798;6.430;2022-12-24T00:42:41;99378.31;;;10.93;71.09
19286;BME280;9776;50.798;6.430;2022-12-24T00:45:10;99375.84;;;10.92;71.02
19286;BME280;9776;50.798;6.430;2022-12-24T00:47:38;99386.69;;;10.97;71.16
19286;BME280;9776;50.798;6.430;2022-12-24T00:50:06;99381.25;;;10.98;71.17
19286;BME280;9776;50.798;6.430;2022-12-24T00:52:33;99391.63;;;11.00;71.27
19286;BME280;9776;50.798;6.430;2022-12-24T00:54:59;99402.66;;;11.03;71.14
19286;BME280;9776;50.798;6.430;2022-12-24T00:57:26;99415.69;;;11.05;71.30
19286;BME280;9776;50.798;6.430;2022-12-24T00:59:53;99420.50;;;11.01;71.42
19286;BME280;9776;50.798;6.430;2022-12-24T01:02:21;99417.66;;;11.03;71.56
19286;BME280;9776;50.798;6.430;2022-12-24T01:04:48;99410.63;;;10.95;71.99
19286;BME280;9776;50.798;6.430;2022-12-24T01:07:32;99408.03;;;10.87;72.11
19286;BME280;9776;50.798;6.430;2022-12-24T01:09:59;99427.03;;;10.82;72.03
19286;BME280;9776;50.798;6.430;2022-12-24T01:12:26;99432.84;;;10.78;72.42
19286;BME280;9776;50.798;6.430;2022-12-24T01:14:53;99429.72;;;10.74;72.74
19286;BME280;9776;50.798;6.430;2022-12-24T01:17:21;99436.66;;;10.75;72.69
19286;BME280;9776;50.798;6.430;2022-12-24T01:19:48;99455.28;;;10.74;72.67
19286;BME280;9776;50.798;6.430;2022-12-24T01:22:15;99440.25;;;10.74;73.06
19286;BME280;9776;50.798;6.430;2022-12-24T01:24:42;99457.28;;;10.72;72.86
19286;BME280;9776;50.798;6.430;2022-12-24T01:27:09;99452.00;;;10.72;73.28
19286;BME280;9776;50.798;6.430;2022-12-24T01:29:36;99447.06;;;10.69;73.19
19286;BME280;9776;50.798;6.430;2022-12-24T01:32:03;99452.53;;;10.67;73.28
19286;BME280;9776;50.798;6.430;2022-12-24T01:34:31;99460.59;;;10.66;73.51
19286;BME280;9776;50.798;6.430;2022-12-24T01:36:58;99452.03;;;10.64;73.54
19286;BME280;9776;50.798;6.430;2022-12-24T01:39:25;99451.72;;;10.59;73.69
19286;BME280;9776;50.798;6.430;2022-12-24T01:41:52;99457.34;;;10.56;73.74
19286;BME280;9776;50.798;6.430;2022-12-24T01:44:40;99459.84;;;10.49;74.02
19286;BME280;9776;50.798;6.430;2022-12-24T01:47:10;99457.00;;;10.51;74.14
19286;BME280;9776;50.798;6.430;2022-12-24T01:49:43;99460.66;;;10.50;74.20
19286;BME280;9776;50.798;6.430;2022-12-24T01:52:14;99459.84;;;10.49;74.21
19286;BME280;9776;50.798;6.430;2022-12-24T01:54:44;99473.34;;;10.46;74.22
19286;BME280;9776;50.798;6.430;2022-12-24T01:57:16;99468.41;;;10.43;74.72
19286;BME280;9776;50.798;6.430;2022-12-24T01:59:48;99463.31;;;10.42;74.66
19286;BME280;9776;50.798;6.430;2022-12-24T02:02:16;99466.13;;;10.40;74.74
19286;BME280;9776;50.798;6.430;2022-12-24T02:04:50;99459.19;;;10.39;74.94
19286;BME280;9776;50.798;6.430;2022-12-24T02:07:20;99468.94;;;10.39;74.85
19286;BME280;9776;50.798;6.430;2022-12-24T02:09:48;99474.88;;;10.41;74.99
19286;BME280;9776;50.798;6.430;2022-12-24T02:12:18;99482.78;;;10.41;74.88
19286;BME280;9776;50.798;6.430;2022-12-24T02:14:45;99500.06;;;10.43;75.01
19286;BME280;9776;50.798;6.430;2022-12-24T02:17:16;99495.63;;;10.44;74.79
19286;BME280;9776;50.798;6.430;2022-12-24T02:20:18;99500.25;;;10.42;74.96
19286;BME280;9776;50.798;6.430;2022-12-24T02:23:10;99510.44;;;10.45;75.37
19286;BME280;9776;50.798;6.430;2022-12-24T02:25:54;99511.28;;;10.53;74.84
19286;BME280;9776;50.798;6.430;2022-12-24T02:28:54;99524.09;;;10.56;74.98
19286;BME280;9776;50.798;6.430;2022-12-24T02:31:32;99533.34;;;10.60;75.13
19286;BME280;9776;50.798;6.430;2022-12-24T02:34:06;99528.91;;;10.61;75.20
19286;BME280;9776;50.798;6.430;2022-12-24T02:36:39;99539.44;;;10.61;75.42
19286;BME280;9776;50.798;6.430;2022-12-24T02:39:10;99547.19;;;10.62;75.49
19286;BME280;9776;50.798;6.430;2022-12-24T02:41:41;99556.44;;;10.58;75.75
19286;BME280;9776;50.798;6.430;2022-12-24T02:44:38;99555.63;;;10.58;76.04
19286;BME280;9776;50.798;6.430;2022-12-24T02:47:07;99559.41;;;10.55;76.07
19286;BME280;9776;50.798;6.430;2022-12-24T02:49:35;99570.13;;;10.54;76.46
19286;BME280;9776;50.798;6.430;2022-12-24T02:52:02;99574.94;;;10.50;76.97
19286;BME280;9776;50.798;6.430;2022-12-24T02:54:29;99564.72;;;10.47;77.13
19286;BME280;9776;50.798;6.430;2022-12-24T02:57:07;99556.31;;;10.44;77.31
19286;BME280;9776;50.798;6.430;2022-12-24T02:59:50;99568.66;;;10.43;77.42
19286;BME280;9776;50.798;6.430;2022-12-24T03:02:29;99571.81;;;10.47;77.49
19286;BME280;9776;50.798;6.430;2022-12-24T03:05:07;99578.56;;;10.49;77.79
19286;BME280;9776;50.798;6.430;2022-12-24T03:07:37;99579.38;;;10.50;78.00
19286;BME280;9776;50.798;6.430;2022-12-24T03:10:17;99597.84;;;10.50;78.09
19286;BME280;9776;50.798;6.430;2022-12-24T03:12:48;99585.16;;;10.53;78.18
19286;BME280;9776;50.798;6.430;2022-12-24T03:15:17;99583.50;;;10.52;78.19
19286;BME280;9776;50.798;6.430;2022-12-24T03:17:48;99586.13;;;10.52;78.47
19286;BME280;9776;50.798;6.430;2022-12-24T03:20:18;99591.25;;;10.46;78.49
19286;BME280;9776;50.798;6.430;2022-12-24T03:22:46;99590.59;;;10.44;78.60
19286;BME280;9776;50.798;6.430;2022-12-24T03:25:13;99604.78;;;10.43;78.77
19286;BME280;9776;50.798;6.430;2022-12-24T03:27:41;99589.13;;;10.41;78.67
19286;BME280;9776;50.798;6.430;2022-12-24T03:30:12;99607.91;;;10.38;78.81
19286;BME280;9776;50.798;6.430;2022-12-24T03:32:39;99614.69;;;10.33;78.79
19286;BME280;9776;50.798;6.430;2022-12-24T03:35:08;99624.22;;;10.25;79.14
19286;BME280;9776;50.798;6.430;2022-12-24T03:37:35;99618.44;;;10.22;79.19
19286;BME280;9776;50.798;6.430;2022-12-24T03:40:03;99606.41;;;10.19;79.32
19286;BME280;9776;50.798;6.430;2022-12-24T03:42:29;99620.44;;;10.28;79.25
19286;BME280;9776;50.798;6.430;2022-12-24T03:44:56;99620.94;;;10.32;79.38
19286;BME280;9776;50.798;6.430;2022-12-24T03:47:23;99610.06;;;10.27;79.28
19286;BME280;9776;50.798;6.430;2022-12-24T03:49:51;99614.84;;;10.23;79.41
19286;BME280;9776;50.798;6.430;2022-12-24T03:52:19;99606.09;;;10.22;79.33
19286;BME280;9776;50.798;6.430;2022-12-24T03:54:46;99614.66;;;10.24;79.18
19286;BME280;9776;50.798;6.430;2022-12-24T03:57:12;99620.94;;;10.23;79.37
19286;BME280;9776;50.798;6.430;2022-12-24T03:59:39;99616.50;;;10.24;79.40
19286;BME280;9776;50.798;6.430;2022-12-24T04:02:06;99610.06;;;10.18;79.35
19286;BME280;9776;50.798;6.430;2022-12-24T04:04:33;99606.59;;;10.18;79.22
19286;BME280;9776;50.798;6.430;2022-12-24T04:07:01;99606.94;;;10.15;79.20
19286;BME280;9776;50.798;6.430;2022-12-24T04:09:29;99600.47;;;10.09;79.17
19286;BME280;9776;50.798;6.430;2022-12-24T04:11:56;99596.34;;;10.07;79.29
19286;BME280;9776;50.798;6.430;2022-12-24T04:14:22;99596.81;;;10.02;79.39
19286;BME280;9776;50.798;6.430;2022-12-24T04:16:49;99589.56;;;9.96;79.41
19286;BME280;9776;50.798;6.430;2022-12-24T04:19:16;99591.69;;;9.93;79.37
19286;BME280;9776;50.798;6.430;2022-12-24T04:21:43;99600.28;;;9.95;79.27
19286;BME280;9776;50.798;6.430;2022-12-24T04:24:09;99598.47;;;9.95;79.43
19286;BME280;9776;50.798;6.430;2022-12-24T04:26:38;99611.34;;;9.98;79.60
19286;BME280;9776;50.798;6.430;2022-12-24T04:29:04;99604.91;;;10.01;79.22
19286;BME280;9776;50.798;6.430;2022-12-24T04:31:31;99609.03;;;10.03;79.35
19286;BME280;9776;50.798;6.430;2022-12-24T04:33:58;99610.31;;;10.07;79.42
19286;BME280;9776;50.798;6.430;2022-12-24T04:36:25;99613.31;;;10.12;79.10
19286;BME280;9776;50.798;6.430;2022-12-24T04:38:52;99622.94;;;10.21;79.25
19286;BME280;9776;50.798;6.430;2022-12-24T04:41:21;99629.19;;;10.29;79.25
19286;BME280;9776;50.798;6.430;2022-12-24T04:43:49;99630.19;;;10.36;79.01
19286;BME280;9776;50.798;6.430;2022-12-24T04:46:17;99617.97;;;10.35;79.41
19286;BME280;9776;50.798;6.430;2022-12-24T04:48:46;99625.56;;;10.38;79.52
19286;BME280;9776;50.798;6.430;2022-12-24T04:51:13;99630.50;;;10.41;79.47
19286;BME280;9776;50.798;6.430;2022-12-24T04:53:41;99639.72;;;10.45;79.28
19286;BME280;9776;50.798;6.430;2022-12-24T04:56:11;99649.94;;;10.48;79.29
19286;BME280;9776;50.798;6.430;2022-12-24T04:58:38;99645.50;;;10.48;79.48
19286;BME280;9776;50.798;6.430;2022-12-24T05:01:07;99651.09;;;10.45;79.48
19286;BME280;9776;50.798;6.430;2022-12-24T05:03:37;99658.34;;;10.43;79.85
19286;BME280;9776;50.798;6.430;2022-12-24T05:06:06;99645.97;;;10.60;79.58
19286;BME280;9776;50.798;6.430;2022-12-24T05:08:33;99662.34;;;10.47;80.20
19286;BME280;9776;50.798;6.430;2022-12-24T05:11:00;99665.78;;;10.40;80.74
19286;BME280;9776;50.798;6.430;2022-12-24T05:13:27;99661.00;;;10.35;80.81
19286;BME280;9776;50.798;6.430;2022-12-24T05:15:55;99658.84;;;10.31;80.66
19286;BME280;9776;50.798;6.430;2022-12-24T05:18:23;99658.19;;;10.37;80.67
19286;BME280;9776;50.798;6.430;2022-12-24T05:20:50;99650.28;;;10.37;80.62
19286;BME280;9776;50.798;6.430;2022-12-24T05:23:19;99650.78;;;10.40;80.41
19286;BME280;9776;50.798;6.430;2022-12-24T05:26:12;99657.06;;;10.47;80.38
19286;BME280;9776;50.798;6.430;2022-12-24T05:28:50;99671.03;;;10.48;80.29
19286;BME280;9776;50.798;6.430;2022-12-24T05:31:17;99668.06;;;10.51;80.42
19286;BME280;9776;50.798;6.430;2022-12-24T05:33:46;99678.47;;;10.52;80.07
19286;BME280;9776;50.798;6.430;2022-12-24T05:36:13;99675.84;;;10.52;80.24
19286;BME280;9776;50.798;6.430;2022-12-24T05:38:40;99674.50;;;10.56;80.09
19286;BME280;9776;50.798;6.430;2022-12-24T05:41:07;99690.69;;;10.61;79.95
19286;BME280;9776;50.798;6.430;2022-12-24T05:43:35;99684.41;;;10.62;80.04
19286;BME280;9776;50.798;6.430;2022-12-24T05:46:04;99691.16;;;10.65;80.14
19286;BME280;9776;50.798;6.430;2022-12-24T05:48:31;99679.63;;;10.66;79.92
19286;BME280;9776;50.798;6.430;2022-12-24T05:51:03;99691.34;;;10.71;79.79
19286;BME280;9776;50.798;6.430;2022-12-24T05:53:30;99689.19;;;10.75;79.69
19286;BME280;9776;50.798;6.430;2022-12-24T05:56:02;99688.03;;;10.77;79.77
19286;BME280;9776;50.798;6.430;2022-12-24T05:58:29;99698.13;;;10.82;79.48
19286;BME280;9776;50.798;6.430;2022-12-24T06:00:55;99697.09;;;10.83;79.91
19286;BME280;9776;50.798;6.430;2022-12-24T06:03:22;99704.88;;;10.85;79.53
19286;BME280;9776;50.798;6.430;2022-12-24T06:05:58;99700.38;;;10.85;79.43
19286;BME280;9776;50.798;6.430;2022-12-24T06:08:25;99707.34;;;10.86;79.50
19286;BME280;9776;50.798;6.430;2022-12-24T06:10:54;99711.97;;;10.84;79.50
19286;BME280;9776;50.798;6.430;2022-12-24T06:13:22;99711.97;;;10.84;79.64
19286;BME280;9776;50.798;6.430;2022-12-24T06:15:49;99721.38;;;10.87;79.58
19286;BME280;9776;50.798;6.430;2022-12-24T06:18:16;99721.50;;;10.85;79.54
19286;BME280;9776;50.798;6.430;2022-12-24T06:20:43;99727.16;;;10.82;79.68
19286;BME280;9776;50.798;6.430;2022-12-24T06:23:11;99729.28;;;10.78;79.82
19286;BME280;9776;50.798;6.430;2022-12-24T06:25:38;99727.31;;;10.72;79.78
19286;BME280;9776;50.798;6.430;2022-12-24T06:28:06;99726.66;;;10.70;79.81
19286;BME280;9776;50.798;6.430;2022-12-24T06:30:32;99739.69;;;10.72;79.96
19286;BME280;9776;50.798;6.430;2022-12-24T06:32:59;99738.50;;;10.74;79.80
19286;BME280;9776;50.798;6.430;2022-12-24T06:35:26;99742.81;;;10.75;79.65
19286;BME280;9776;50.798;6.430;2022-12-24T06:37:53;99741.81;;;10.76;79.35
19286;BME280;9776;50.798;6.430;2022-12-24T06:40:21;99742.81;;;10.75;79.60
19286;BME280;9776;50.798;6.430;2022-12-24T06:42:47;99738.38;;;10.76;79.36
19286;BME280;9776;50.798;6.430;2022-12-24T06:45:14;99739.84;;;10.78;79.33
19286;BME280;9776;50.798;6.430;2022-12-24T06:47:41;99746.44;;;10.74;79.28
19286;BME280;9776;50.798;6.430;2022-12-24T06:50:09;99743.31;;;10.79;79.32
19286;BME280;9776;50.798;6.430;2022-12-24T06:52:35;99757.16;;;10.81;79.33
19286;BME280;9776;50.798;6.430;2022-12-24T06:55:03;99747.25;;;10.83;79.06
19286;BME280;9776;50.798;6.430;2022-12-24T06:57:31;99749.41;;;10.79;78.99
19286;BME280;9776;50.798;6.430;2022-12-24T06:59:58;99746.59;;;10.81;79.15
19286;BME280;9776;50.798;6.430;2022-12-24T07:02:25;99743.63;;;10.84;78.88
19286;BME280;9776;50.798;6.430;2022-12-24T07:04:52;99762.13;;;10.84;78.80
19286;BME280;9776;50.798;6.430;2022-12-24T07:07:19;99753.88;;;10.79;79.12
19286;BME280;9776;50.798;6.430;2022-12-24T07:09:46;99766.72;;;10.74;79.33
19286;BME280;9776;50.798;6.430;2022-12-24T07:12:12;99767.03;;;10.71;79.31
19286;BME280;9776;50.798;6.430;2022-12-24T07:14:41;99766.56;;;10.67;79.42
19286;BME280;9776;50.798;6.430;2022-12-24T07:17:07;99768.38;;;10.67;79.21
19286;BME280;9776;50.798;6.430;2022-12-24T07:19:34;99777.28;;;10.66;79.31
19286;BME280;9776;50.798;6.430;2022-12-24T07:22:01;99781.06;;;10.63;79.21
19286;BME280;9776;50.798;6.430;2022-12-24T07:24:28;99783.88;;;10.62;79.39
19286;BME280;9776;50.798;6.430;2022-12-24T07:26:54;99785.00;;;10.59;79.27
19286;BME280;9776;50.798;6.430;2022-12-24T07:29:21;99788.16;;;10.55;79.27
19286;BME280;9776;50.798;6.430;2022-12-24T07:31:49;99786.66;;;10.52;79.37
19286;BME280;9776;50.798;6.430;2022-12-24T07:34:16;99794.59;;;10.52;79.51
19286;BME280;9776;50.798;6.430;2022-12-24T07:36:43;99800.19;;;10.49;79.42
19286;BME280;9776;50.798;6.430;2022-12-24T07:39:10;99802.97;;;10.48;79.33
19286;BME280;9776;50.798;6.430;2022-12-24T07:41:37;99811.88;;;10.47;79.18
19286;BME280;9776;50.798;6.430;2022-12-24T07:44:04;99809.06;;;10.48;79.17
19286;BME280;9776;50.798;6.430;2022-12-24T07:46:30;99811.72;;;10.48;79.48
19286;BME280;9776;50.798;6.430;2022-12-24T07:48:58;99815.84;;;10.51;79.16
19286;BME280;9776;50.798;6.430;2022-12-24T07:51:25;99814.53;;;10.55;79.17
19286;BME280;9776;50.798;6.430;2022-12-24T07:53:52;99817.84;;;10.57;79.18
19286;BME280;9776;50.798;6.430;2022-12-24T07:56:19;99821.97;;;10.59;78.76
19286;BME280;9776;50.798;6.430;2022-12-24T07:58:45;99826.13;;;10.62;78.80
19286;BME280;9776;50.798;6.430;2022-12-24T08:01:12;99829.91;;;10.67;78.56
19286;BME280;9776;50.798;6.430;2022-12-24T08:03:39;99829.09;;;10.75;78.59
19286;BME280;9776;50.798;6.430;2022-12-24T08:06:07;99829.75;;;10.77;78.60
19286;BME280;9776;50.798;6.430;2022-12-24T08:08:35;99828.91;;;10.76;78.46
19286;BME280;9776;50.798;6.430;2022-12-24T08:11:03;99835.03;;;10.77;78.50
19286;BME280;9776;50.798;6.430;2022-12-24T08:13:31;99836.69;;;10.78;78.29
19286;BME280;9776;50.798;6.430;2022-12-24T08:15:58;99836.03;;;10.84;78.32
19286;BME280;9776;50.798;6.430;2022-12-24T08:18:25;99838.69;;;10.92;77.86
19286;BME280;9776;50.798;6.430;2022-12-24T08:20:52;99848.91;;;11.03;77.75
19286;BME280;9776;50.798;6.430;2022-12-24T08:23:20;99844.16;;;11.07;77.53
19286;BME280;9776;50.798;6.430;2022-12-24T08:25:47;99850.91;;;11.09;77.58
19286;BME280;9776;50.798;6.430;2022-12-24T08:28:16;99855.53;;;11.23;77.19
19286;BME280;9776;50.798;6.430;2022-12-24T08:30:43;99859.19;;;11.30;76.83
19286;BME280;9776;50.798;6.430;2022-12-24T08:33:10;99866.13;;;11.39;76.88
19286;BME280;9776;50.798;6.430;2022-12-24T08:35:37;99864.47;;;11.38;76.81
19286;BME280;9776;50.798;6.430;2022-12-24T08:38:04;99875.84;;;11.47;76.80
19286;BME280;9776;50.798;6.430;2022-12-24T08:40:32;99869.72;;;11.55;76.21
19286;BME280;9776;50.798;6.430;2022-12-24T08:43:00;99866.28;;;11.54;76.18
19286;BME280;9776;50.798;6.430;2022-12-24T08:45:27;99874.34;;;11.53;76.58
19286;BME280;9776;50.798;6.430;2022-12-24T08:47:54;99881.28;;;11.62;76.06
19286;BME280;9776;50.798;6.430;2022-12-24T08:50:21;99879.31;;;11.72;75.88
19286;BME280;9776;50.798;6.430;2022-12-24T08:52:48;99878.81;;;11.84;75.37
19286;BME280;9776;50.798;6.430;2022-12-24T08:55:14;99875.31;;;11.92;75.18
19286;BME280;9776;50.798;6.430;2022-12-24T08:57:43;99882.09;;;11.94;75.30
19286;BME280;9776;50.798;6.430;2022-12-24T09:00:11;99888.88;;;11.89;75.08
19286;BME280;9776;50.798;6.430;2022-12-24T09:02:38;99875.66;;;11.89;75.32
19286;BME280;9776;50.798;6.430;2022-12-24T09:05:06;99893.81;;;11.92;75.07
19286;BME280;9776;50.798;6.430;2022-12-24T09:07:32;99893.00;;;12.00;74.74
19286;BME280;9776;50.798;6.430;2022-12-24T09:09:59;99906.19;;;12.08;74.56
19286;BME280;9776;50.798;6.430;2022-12-24T09:12:26;99900.03;;;12.15;74.17
19286;BME280;9776;50.798;6.430;2022-12-24T09:14:54;99897.56;;;12.22;73.86
19286;BME280;9776;50.798;6.430;2022-12-24T09:17:21;99902.34;;;12.18;74.23
19286;BME280;9776;50.798;6.430;2022-12-24T09:19:47;99907.84;;;12.09;74.35
19286;BME280;9776;50.798;6.430;2022-12-24T09:22:15;99919.59;;;12.06;74.36
19286;BME280;9776;50.798;6.430;2022-12-24T09:24:42;99924.22;;;12.04;74.02
19286;BME280;9776;50.798;6.430;2022-12-24T09:27:09;99933.16;;;12.03;74.19
19286;BME280;9776;50.798;6.430;2022-12-24T09:29:35;99931.50;;;12.02;74.02
19286;BME280;9776;50.798;6.430;2022-12-24T09:32:06;99935.78;;;12.11;73.75
19286;BME280;9776;50.798;6.430;2022-12-24T09:34:33;99938.59;;;12.10;73.69
19286;BME280;9776;50.798;6.430;2022-12-24T09:36:59;99932.47;;;12.17;73.46
19286;BME280;9776;50.798;6.430;2022-12-24T09:39:27;99947.00;;;12.29;72.95
19286;BME280;9776;50.798;6.430;2022-12-24T09:41:57;99945.63;;;12.41;72.85
19286;BME280;9776;50.798;6.430;2022-12-24T09:44:34;99939.50;;;12.49;72.12
19286;BME280;9776;50.798;6.430;2022-12-24T09:47:21;99952.84;;;12.56;72.12
19286;BME280;9776;50.798;6.430;2022-12-24T09:49:52;99961.50;;;12.49;72.35
19286;BME280;9776;50.798;6.430;2022-12-24T09:52:24;99973.06;;;12.48;72.34
19286;BME280;9776;50.798;6.430;2022-12-24T09:55:00;99977.03;;;12.44;72.46
19286;BME280;9776;50.798;6.430;2022-12-24T09:57:31;99969.44;;;12.41;72.36
19286;BME280;9776;50.798;6.430;2022-12-24T10:00:02;99967.81;;;12.40;72.62
19286;BME280;9776;50.798;6.430;2022-12-24T10:02:30;99978.56;;;12.31;72.37
19286;BME280;9776;50.798;6.430;2022-12-24T10:04:57;99964.50;;;12.30;72.70
19286;BME280;9776;50.798;6.430;2022-12-24T10:07:31;99969.50;;;12.25;72.34
19286;BME280;9776;50.798;6.430;2022-12-24T10:10:12;99979.75;;;12.20;72.37
19286;BME280;9776;50.798;6.430;2022-12-24T10:12:50;99973.97;;;12.17;72.58
19286;BME280;9776;50.798;6.430;2022-12-24T10:15:24;99981.25;;;12.15;72.57
19286;BME280;9776;50.798;6.430;2022-12-24T10:18:07;99973.63;;;12.20;72.42
19286;BME280;9776;50.798;6.430;2022-12-24T10:20:43;99972.97;;;12.26;72.21
19286;BME280;9776;50.798;6.430;2022-12-24T10:23:17;99987.34;;;12.31;71.91
19286;BME280;9776;50.798;6.430;2022-12-24T10:25:50;99987.97;;;12.41;71.87
19286;BME280;9776;50.798;6.430;2022-12-24T10:28:23;99989.28;;;12.45;71.63
19286;BME280;9776;50.798;6.430;2022-12-24T10:30:57;99994.59;;;12.45;71.37
19286;BME280;9776;50.798;6.430;2022-12-24T10:33:30;99998.91;;;12.46;71.53
19286;BME280;9776;50.798;6.430;2022-12-24T10:35:58;99997.69;;;12.57;71.14
19286;BME280;9776;50.798;6.430;2022-12-24T10:38:25;99999.81;;;12.62;70.93
19286;BME280;9776;50.798;6.430;2022-12-24T10:40:53;99988.59;;;12.60;70.99
19286;BME280;9776;50.798;6.430;2022-12-24T10:43:23;99996.34;;;12.69;70.89
19286;BME280;9776;50.798;6.430;2022-12-24T10:45:52;99989.53;;;12.75;70.86
19286;BME280;9776;50.798;6.430;2022-12-24T10:48:24;99987.03;;;12.73;70.61
19286;BME280;9776;50.798;6.430;2022-12-24T10:50:58;99989.22;;;12.70;70.85
19286;BME280;9776;50.798;6.430;2022-12-24T10:53:33;99987.25;;;12.64;70.91
19286;BME280;9776;50.798;6.430;2022-12-24T10:56:04;99983.09;;;12.61;71.13
19286;BME280;9776;50.798;6.430;2022-12-24T10:58:32;99982.47;;;12.59;71.02
19286;BME280;9776;50.798;6.430;2022-12-24T11:01:00;99980.78;;;12.66;71.00
19286;BME280;9776;50.798;6.430;2022-12-24T11:03:29;99985.75;;;12.69;70.80
19286;BME280;9776;50.798;6.430;2022-12-24T11:06:04;99980.59;;;12.68;70.89
19286;BME280;9776;50.798;6.430;2022-12-24T11:08:32;99990.38;;;12.75;70.82
19286;BME280;9776;50.798;6.430;2022-12-24T11:11:00;99986.84;;;12.83;70.37
19286;BME280;9776;50.798;6.430;2022-12-24T11:13:29;99980.81;;;12.97;70.11
19286;BME280;9776;50.798;6.430;2022-12-24T11:16:02;99974.47;;;13.14;69.60
19286;BME280;9776;50.798;6.430;2022-12-24T11:18:31;99961.84;;;13.16;69.72
19286;BME280;9776;50.798;6.430;2022-12-24T11:20:58;99968.66;;;13.19;69.38
19286;BME280;9776;50.798;6.430;2022-12-24T11:23:27;99970.47;;;13.18;69.44
19286;BME280;9776;50.798;6.430;2022-12-24T11:25:56;99965.88;;;13.12;69.35
19286;BME280;9776;50.798;6.430;2022-12-24T11:28:25;99974.19;;;13.01;69.55
19286;BME280;9776;50.798;6.430;2022-12-24T11:30:59;99973.06;;;12.87;70.16
19286;BME280;9776;50.798;6.430;2022-12-24T11:33:27;99979.44;;;12.78;70.43
19286;BME280;9776;50.798;6.430;2022-12-24T11:36:03;99983.25;;;12.68;70.27
19286;BME280;9776;50.798;6.430;2022-12-24T11:38:33;99980.03;;;12.88;69.98
19286;BME280;9776;50.798;6.430;2022-12-24T11:41:04;99981.78;;;13.12;69.55
19286;BME280;9776;50.798;6.430;2022-12-24T11:43:41;99978.59;;;13.39;68.60
19286;BME280;9776;50.798;6.430;2022-12-24T11:46:17;99987.94;;;13.35;68.66
19286;BME280;9776;50.798;6.430;2022-12-24T11:48:45;99979.06;;;13.20;69.02
19286;BME280;9776;50.798;6.430;2022-12-24T11:51:23;99983.03;;;13.24;68.94
19286;BME280;9776;50.798;6.430;2022-12-24T11:53:57;99969.88;;;13.31;68.51
19286;BME280;9776;50.798;6.430;2022-12-24T11:56:32;99977.19;;;13.29;68.75
19286;BME280;9776;50.798;6.430;2022-12-24T11:59:08;99971.53;;;13.32;68.59
19286;BME280;9776;50.798;6.430;2022-12-24T12:01:45;99978.03;;;13.29;68.60
19286;BME280;9776;50.798;6.430;2022-12-24T12:04:15;99983.31;;;13.29;68.37
19286;BME280;9776;50.798;6.430;2022-12-24T12:06:46;99984.50;;;13.27;68.75
19286;BME280;9776;50.798;6.430;2022-12-24T12:09:18;99984.59;;;13.33;68.41
19286;BME280;9776;50.798;6.430;2022-12-24T12:11:51;99984.88;;;13.46;68.15
19286;BME280;9776;50.798;6.430;2022-12-24T12:14:21;99990.66;;;13.50;67.98
19286;BME280;9776;50.798;6.430;2022-12-24T12:16:57;99987.22;;;13.41;67.69
19286;BME280;9776;50.798;6.430;2022-12-24T12:19:27;99992.75;;;13.32;68.16
19286;BME280;9776;50.798;6.430;2022-12-24T12:21:58;100001.94;;;13.21;68.29
19286;BME280;9776;50.798;6.430;2022-12-24T12:24:33;99994.28;;;13.26;68.09
19286;BME280;9776;50.798;6.430;2022-12-24T12:27:06;99997.34;;;13.60;67.54
19286;BME280;9776;50.798;6.430;2022-12-24T12:29:42;99995.81;;;13.66;67.17
19286;BME280;9776;50.798;6.430;2022-12-24T12:32:16;99996.72;;;13.58;67.25
19286;BME280;9776;50.798;6.430;2022-12-24T12:34:57;99998.53;;;13.35;67.70
19286;BME280;9776;50.798;6.430;2022-12-24T12:37:30;100005.91;;;13.17;68.14
19286;BME280;9776;50.798;6.430;2022-12-24T12:40:01;99997.66;;;13.12;68.42
19286;BME280;9776;50.798;6.430;2022-12-24T12:42:30;100007.91;;;13.15;68.35
19286;BME280;9776;50.798;6.430;2022-12-24T12:45:20;99993.03;;;13.37;68.08
19286;BME280;9776;50.798;6.430;2022-12-24T12:48:04;99998.50;;;14.55;65.42
19286;BME280;9776;50.798;6.430;2022-12-24T12:50:42;100000.00;;;16.01;62.06
19286;BME280;9776;50.798;6.430;2022-12-24T12:53:23;99994.81;;;17.30;58.42
19286;BME280;9776;50.798;6.430;2022-12-24T12:56:00;99987.16;;;18.21;56.12
19286;BME280;9776;50.798;6.430;2022-12-24T12:58:36;99990.41;;;18.16;56.40
19286;BME280;9776;50.798;6.430;2022-12-24T13:01:10;99989.94;;;18.72;54.88
19286;BME280;9776;50.798;6.430;2022-12-24T13:04:03;99996.13;;;18.72;54.50
19286;BME280;9776;50.798;6.430;2022-12-24T13:09:54;100004.81;;;18.35;54.78
19286;BME280;9776;50.798;6.430;2022-12-24T13:12:43;100008.91;;;17.91;55.82
19286;BME280;9776;50.798;6.430;2022-12-24T13:15:36;100011.25;;;17.34;56.64
19286;BME280;9776;50.798;6.430;2022-12-24T13:18:24;100008.19;;;17.37;56.75
19286;BME280;9776;50.798;6.430;2022-12-24T13:20:56;100013.25;;;18.05;55.06
19286;BME280;9776;50.798;6.430;2022-12-24T13:23:24;100012.41;;;17.98;54.84
19286;BME280;9776;50.798;6.430;2022-12-24T13:25:53;100025.66;;;17.46;55.73
19286;BME280;9776;50.798;6.430;2022-12-24T13:28:32;100022.06;;;17.26;55.80